SGP weather

Shay Gap Airport
Shay Gap, Western Australia, Australia

Public forecast

Using degrees Celsius for public forecast. Weather courtesy of forecast.io.

METAR (pilot weather report)

Closest report is Port Hedland International Airport, 85.3 nm (158.0 km) W. Retrieved 2019/03/19 14:30 UTC (21 minutes ago):

YPPD 191430Z AUTO 23007KT 9999 // NCD 30/25 Q1007 RF00.0/000.0

TAF (pilot weather forecast)

Closest forecast is Port Hedland International Airport, 85.3 nm (158.0 km) W. Retrieved 2019/03/19 12:36 UTC (2 hours ago):

TAF YPPD 191102Z 1912/2012 23006KT CAVOK FM200300 02016KT CAVOK